Time;durP1;ratioP1;P1;durP2;ratioP2;P2;SDS_P1;SDS_P2;PMS_P1;PMS_P2;Temp;Humidity;BMP_temperature;BMP_pressure;BME280_temperature;BME280_humidity;BME280_pressure;Samples;Min_cycle;Max_cycle;Signal;HPM_P1;HPM_P2
2022/08/18 00:01:47;;;;;;;26.80;15.15;;;;;;;25.87;58.57;101295.84;5015329;28;20525;-68
2022/08/18 00:04:13;;;;;;;33.80;14.73;;;;;;;25.39;60.01;101311.38;5015490;28;20113;-69
2022/08/18 00:06:39;;;;;;;37.72;15.35;;;;;;;25.25;60.80;101313.38;5015364;28;20128;-70
2022/08/18 00:09:07;;;;;;;33.30;14.27;;;;;;;25.41;59.86;101308.34;5015114;28;20124;-70
2022/08/18 00:11:42;;;;;;;25.02;12.98;;;;;;;25.73;58.76;101299.84;5014890;28;20573;-70
2022/08/18 00:14:19;;;;;;;25.90;13.63;;;;;;;25.62;58.90;101301.19;5015097;28;20150;-68
2022/08/18 00:16:45;;;;;;;29.95;14.18;;;;;;;25.54;59.26;101312.97;5014640;28;20065;-68
2022/08/18 00:19:10;;;;;;;28.63;13.02;;;;;;;25.98;58.16;101305.44;5015687;28;20072;-70
2022/08/18 00:21:35;;;;;;;36.08;14.15;;;;;;;25.92;58.28;101316.94;5015031;28;20053;-68
2022/08/18 00:24:01;;;;;;;34.13;14.45;;;;;;;25.59;59.24;101321.91;5014946;28;20152;-68
2022/08/18 00:26:27;;;;;;;41.60;14.88;;;;;;;25.56;59.59;101321.72;5015088;28;20509;-68
2022/08/18 00:28:52;;;;;;;30.02;15.15;;;;;;;25.53;59.86;101314.94;5015355;28;20046;-70
2022/08/18 00:31:18;;;;;;;29.15;14.73;;;;;;;25.25;60.60;101316.94;5014630;28;20038;-69
2022/08/18 00:33:43;;;;;;;38.15;15.07;;;;;;;25.37;60.46;101323.81;5015341;28;20029;-70
2022/08/18 00:36:10;;;;;;;28.83;13.55;;;;;;;25.76;59.01;101324.78;5014707;28;20030;-68
2022/08/18 00:38:36;;;;;;;27.27;14.30;;;;;;;25.79;58.40;101328.84;5014762;28;20041;-70
2022/08/18 00:41:02;;;;;;;35.28;14.45;;;;;;;25.57;59.27;101318.66;5014296;28;20636;-70
2022/08/18 00:43:50;;;;;;;33.90;13.95;;;;;;;25.73;59.04;101316.34;5014663;28;20076;-69
2022/08/18 00:46:19;;;;;;;28.45;14.30;;;;;;;26.05;58.25;101308.59;5014721;28;20541;-68
2022/08/18 00:48:45;;;;;;;31.88;15.50;;;;;;;26.10;57.74;101310.44;5015192;28;20014;-68
2022/08/18 00:51:16;;;;;;;35.95;14.15;;;;;;;25.87;58.32;101311.56;5012870;28;20076;-68
2022/08/18 00:53:49;;;;;;;29.88;15.77;;;;;;;25.17;60.88;101317.69;5014048;28;20037;-69
2022/08/18 00:56:21;;;;;;;32.90;15.52;;;;;;;25.52;60.01;101310.53;5014197;28;20056;-70
2022/08/18 00:59:06;;;;;;;25.10;15.07;;;;;;;25.65;59.48;101311.59;5014284;28;20045;-68
2022/08/18 01:01:33;;;;;;;26.73;15.93;;;;;;;25.60;59.53;101301.53;5014205;28;20098;-70
2022/08/18 01:04:04;;;;;;;32.33;16.45;;;;;;;25.39;60.61;101305.06;5014435;28;20045;-70
2022/08/18 01:06:39;;;;;;;24.50;15.95;;;;;;;25.43;60.04;101306.09;5013943;28;20565;-69
2022/08/18 01:09:07;;;;;;;31.08;16.15;;;;;;;25.60;59.74;101301.53;5013784;28;20040;-70
2022/08/18 01:11:35;;;;;;;27.02;15.57;;;;;;;25.76;59.19;101307.44;4996230;28;20053;-69
2022/08/18 01:14:02;;;;;;;23.45;15.65;;;;;;;26.11;58.07;101309.28;5013910;28;20040;-69
2022/08/18 01:22:06;;;;;;;27.20;15.80;;;;;;;25.82;58.90;101329.03;5013849;28;20053;-70
2022/08/18 01:27:20;;;;;;;29.65;15.68;;;;;;;25.75;59.14;101320.41;5013873;28;20052;-68
2022/08/18 01:29:48;;;;;;;32.40;15.73;;;;;;;26.12;57.97;101310.09;5013552;28;20058;-69
2022/08/18 01:32:19;;;;;;;30.13;15.27;;;;;;;26.05;58.70;101314.09;5013618;28;20038;-68
2022/08/18 01:34:46;;;;;;;33.28;16.73;;;;;;;26.25;57.91;101321.00;5013846;28;20029;-70
2022/08/18 01:37:14;;;;;;;21.30;15.15;;;;;;;26.38;57.45;101324.81;5013972;28;20034;-70
2022/08/18 01:39:40;;;;;;;29.52;14.27;;;;;;;26.47;57.08;101317.38;5013832;28;20049;-68
2022/08/18 01:42:05;;;;;;;25.95;13.68;;;;;;;26.04;58.07;101315.22;5013312;28;20065;-70
2022/08/18 01:44:32;;;;;;;32.28;15.70;;;;;;;26.30;57.25;101309.06;5012230;28;20037;-68
2022/08/18 01:46:58;;;;;;;24.63;14.13;;;;;;;26.03;58.22;101310.03;5012417;28;20037;-68
2022/08/18 01:49:23;;;;;;;20.63;13.65;;;;;;;26.36;57.22;101313.28;5013459;28;20470;-70
2022/08/18 01:51:48;;;;;;;25.83;13.60;;;;;;;26.16;58.05;101317.41;4995988;28;20037;-69
2022/08/18 01:54:14;;;;;;;26.17;13.70;;;;;;;26.44;56.73;101310.53;5013107;28;20026;-69
2022/08/18 01:56:41;;;;;;;26.80;14.30;;;;;;;26.51;56.21;101316.41;5013223;28;20045;-70
2022/08/18 01:59:13;;;;;;;22.83;13.95;;;;;;;26.52;56.27;101318.03;5013196;28;20080;-68
2022/08/18 02:01:40;;;;;;;37.67;14.45;;;;;;;26.37;57.20;101314.91;5012138;28;20030;-70
2022/08/18 02:04:06;;;;;;;26.45;13.52;;;;;;;26.32;57.45;101312.31;5013240;28;20046;-68
2022/08/18 02:06:32;;;;;;;26.35;13.35;;;;;;;26.26;57.43;101310.81;5012777;28;20050;-69
2022/08/18 02:08:58;;;;;;;24.70;13.27;;;;;;;26.33;57.59;101308.41;5012811;28;20076;-70
2022/08/18 02:11:23;;;;;;;29.13;13.93;;;;;;;26.47;56.74;101306.34;5012573;28;20070;-69
2022/08/18 02:13:49;;;;;;;24.45;13.45;;;;;;;26.26;57.44;101311.59;5012697;28;20391;-70
2022/08/18 02:16:15;;;;;;;23.92;13.23;;;;;;;26.21;57.27;101308.19;5012957;28;20061;-69
2022/08/18 02:18:41;;;;;;;34.10;14.43;;;;;;;26.04;58.00;101317.97;5013215;28;20083;-70
2022/08/18 02:21:08;;;;;;;21.90;13.90;;;;;;;26.43;57.11;101313.63;5012788;28;20041;-70
2022/08/18 02:23:34;;;;;;;25.25;14.90;;;;;;;26.36;56.91;101310.53;5012534;28;20041;-71
2022/08/18 02:26:06;;;;;;;22.88;13.27;;;;;;;25.98;57.77;101307.41;5012630;28;20530;-70
2022/08/18 02:28:32;;;;;;;22.55;11.88;;;;;;;26.38;56.58;101314.56;5012661;28;20033;-69
2022/08/18 02:31:13;;;;;;;25.30;14.30;;;;;;;26.35;57.16;101317.16;5013136;28;20034;-70
2022/08/18 02:33:39;;;;;;;;;;;;;;;26.40;56.36;101311.50;5013198;28;20034;-68
2022/08/18 02:36:05;;;;;;;29.17;12.35;;;;;;;26.40;56.25;101319.75;5012213;28;19921;-67
2022/08/18 02:38:32;;;;;;;21.50;12.10;;;;;;;26.51;56.54;101315.59;5012296;28;20046;-69
2022/08/18 02:41:02;;;;;;;21.38;11.88;;;;;;;26.10;57.44;101311.22;5012193;28;20034;-69
2022/08/18 02:43:28;;;;;;;20.05;12.50;;;;;;;26.25;57.09;101310.00;5011153;28;20101;-69
2022/08/18 02:45:54;;;;;;;23.23;12.45;;;;;;;26.07;57.38;101306.34;5012595;28;20014;-68
2022/08/18 02:48:24;;;;;;;22.33;11.70;;;;;;;26.05;57.41;101316.03;5011946;28;20355;-68
2022/08/18 02:50:49;;;;;;;21.77;11.68;;;;;;;26.27;56.53;101316.00;5012251;28;20144;-70
2022/08/18 02:53:24;;;;;;;20.08;11.70;;;;;;;26.07;57.43;101320.13;5012018;28;20057;-69
2022/08/18 02:55:49;;;;;;;20.90;12.23;;;;;;;26.15;56.74;101324.06;5011841;28;20033;-69
2022/08/18 02:58:15;;;;;;;26.42;13.30;;;;;;;26.07;57.51;101317.38;5012237;28;20568;-70
2022/08/18 03:00:41;;;;;;;21.77;12.77;;;;;;;26.13;57.16;101318.03;5012679;28;20378;-70
2022/08/18 03:03:07;;;;;;;20.58;12.82;;;;;;;26.13;56.98;101328.25;5011976;28;20034;-69
2022/08/18 03:05:33;;;;;;;29.45;15.82;;;;;;;25.92;57.69;101331.53;5012042;28;20042;-70
2022/08/18 03:07:59;;;;;;;32.42;15.63;;;;;;;26.09;57.18;101323.38;5012351;28;20030;-70
2022/08/18 03:10:24;;;;;;;27.65;14.88;;;;;;;25.80;58.25;101336.81;5012081;28;20053;-69
2022/08/18 03:12:50;;;;;;;27.05;16.75;;;;;;;25.66;58.61;101343.50;5012116;28;20034;-68
2022/08/18 03:15:15;;;;;;;29.95;16.60;;;;;;;25.25;60.36;101343.66;5011614;28;20352;-70
2022/08/18 03:17:40;;;;;;;25.35;16.60;;;;;;;24.87;61.09;101343.13;5011386;28;20101;-71
2022/08/18 03:20:06;;;;;;;24.80;17.85;;;;;;;24.69;62.00;101340.44;5011286;28;20402;-71
2022/08/18 03:22:32;;;;;;;34.03;18.45;;;;;;;25.39;59.78;101343.59;5011100;28;20053;-68
2022/08/18 03:24:58;;;;;;;28.08;18.58;;;;;;;25.15;60.65;101343.88;5011364;28;20044;-69
2022/08/18 03:27:24;;;;;;;35.50;19.17;;;;;;;25.24;60.59;101344.75;5010934;28;20037;-70
2022/08/18 03:29:50;;;;;;;46.78;20.15;;;;;;;25.20;60.48;101343.75;4993158;28;20061;-70
2022/08/18 03:32:16;;;;;;;31.98;19.83;;;;;;;25.46;59.81;101342.06;5010555;28;20034;-70
2022/08/18 03:34:41;;;;;;;39.55;20.10;;;;;;;25.62;59.36;101348.81;5010839;28;20046;-69
2022/08/18 03:37:07;;;;;;;38.58;19.40;;;;;;;25.80;58.80;101338.75;5011444;28;20030;-68
2022/08/18 03:39:33;;;;;;;41.17;19.83;;;;;;;25.80;59.09;101344.25;4991470;28;20037;-69
2022/08/18 03:41:58;;;;;;;44.80;20.52;;;;;;;25.80;58.75;101355.25;5011077;28;20050;-69
2022/08/18 03:44:24;;;;;;;33.45;19.35;;;;;;;25.92;58.11;101353.56;5011904;28;20038;-69
2022/08/18 03:46:50;;;;;;;40.58;20.02;;;;;;;26.07;57.91;101353.19;5011783;28;20494;-69
2022/08/18 03:49:17;;;;;;;35.78;21.75;;;;;;;26.09;57.56;101350.94;5011686;28;20037;-68
2022/08/18 03:51:45;;;;;;;31.55;21.58;;;;;;;26.12;57.78;101348.66;5012045;28;20049;-68
2022/08/18 03:54:12;;;;;;;39.63;19.52;;;;;;;25.84;58.53;101361.75;5011395;28;20048;-69
2022/08/18 03:56:39;;;;;;;41.97;20.80;;;;;;;25.53;59.52;101358.16;5011585;28;20560;-68
2022/08/18 03:59:09;;;;;;;30.42;20.40;;;;;;;25.68;59.20;101357.75;5011603;28;20057;-69
2022/08/18 04:01:40;;;;;;;42.65;21.27;;;;;;;25.84;58.73;101353.50;5008458;28;20125;-70
2022/08/18 04:04:09;;;;;;;43.33;21.67;;;;;;;25.73;58.71;101352.94;5011214;28;20037;-68
2022/08/18 04:06:44;;;;;;;44.95;22.55;;;;;;;25.78;58.73;101352.00;5010979;28;20045;-69
2022/08/18 04:09:12;;;;;;;34.75;20.65;;;;;;;25.78;58.67;101365.78;4997295;28;20041;-69
2022/08/18 04:11:41;;;;;;;40.03;22.38;;;;;;;25.95;58.42;101363.94;5010922;28;20030;-70
2022/08/18 04:14:08;;;;;;;37.72;22.50;;;;;;;26.06;57.72;101359.03;5011092;28;20045;-68
2022/08/18 04:16:37;;;;;;;36.67;20.52;;;;;;;25.90;58.59;101361.34;5013444;28;20046;-70
2022/08/18 04:19:03;;;;;;;34.63;20.20;;;;;;;25.11;60.75;101351.94;5012084;28;20054;-68
2022/08/18 04:21:31;;;;;;;40.80;22.90;;;;;;;25.44;59.89;101360.00;5011209;28;20053;-69
2022/08/18 04:24:03;;;;;;;25.70;19.10;;;;;;;24.93;61.58;101357.56;5011128;28;20418;-70
2022/08/18 04:26:33;;;;;;;37.85;19.25;;;;;;;24.88;61.77;101358.50;5014065;28;20030;-69
2022/08/18 04:29:00;;;;;;;38.58;19.88;;;;;;;25.24;60.81;101359.31;5014758;28;20034;-68
2022/08/18 04:31:28;;;;;;;36.03;20.33;;;;;;;25.11;61.02;101360.19;5014782;28;20030;-70
2022/08/18 04:33:55;;;;;;;37.67;21.98;;;;;;;25.25;61.06;101368.41;5014896;28;20038;-69
2022/08/18 04:36:21;;;;;;;32.45;20.45;;;;;;;25.76;59.31;101377.09;5013343;28;20038;-68
2022/08/18 04:38:47;;;;;;;33.17;19.83;;;;;;;25.56;59.77;101376.78;5014576;28;20126;-68
2022/08/18 04:41:12;;;;;;;32.88;20.17;;;;;;;24.88;62.17;101371.44;5014438;28;20096;-68
2022/08/18 04:43:38;;;;;;;38.55;19.65;;;;;;;24.73;62.62;101371.72;5014756;28;20390;-69
2022/08/18 04:46:05;;;;;;;33.30;21.60;;;;;;;25.01;61.58;101370.59;5014960;28;20141;-68
2022/08/18 04:48:34;;;;;;;34.75;21.67;;;;;;;24.93;62.03;101374.88;5014266;28;20170;-67
2022/08/18 04:51:09;;;;;;;32.85;20.45;;;;;;;25.01;61.53;101368.66;4996691;28;20414;-68
2022/08/18 04:53:43;;;;;;;35.15;21.42;;;;;;;25.04;61.59;101370.78;5014484;28;20030;-70
2022/08/18 04:56:20;;;;;;;33.03;20.60;;;;;;;25.23;61.03;101376.97;4996594;28;20043;-70
2022/08/18 04:58:51;;;;;;;34.25;23.02;;;;;;;25.00;61.41;101367.03;5014319;28;20038;-68
2022/08/18 05:01:21;;;;;;;45.08;24.13;;;;;;;25.32;60.38;101368.78;5014272;28;20085;-69
2022/08/18 05:03:49;;;;;;;45.17;23.23;;;;;;;25.22;60.73;101375.34;5014362;28;20042;-68
2022/08/18 05:06:14;;;;;;;34.35;22.00;;;;;;;24.97;61.67;101375.06;5014172;28;20038;-69
2022/08/18 05:08:39;;;;;;;40.55;23.58;;;;;;;24.83;62.18;101375.09;5014146;28;20041;-69
2022/08/18 05:11:05;;;;;;;38.53;22.98;;;;;;;25.33;60.34;101377.84;5013916;28;20045;-70
2022/08/18 05:13:31;;;;;;;38.45;22.00;;;;;;;25.06;60.87;101387.78;5013898;28;20033;-68
2022/08/18 05:16:02;;;;;;;34.88;21.30;;;;;;;25.37;60.10;101387.13;5013802;28;20025;-70
2022/08/18 05:18:27;;;;;;;35.53;22.08;;;;;;;25.30;60.11;101384.00;5012432;28;20157;-69
2022/08/18 05:20:54;;;;;;;38.30;20.48;;;;;;;25.00;61.49;101385.47;5013748;28;20510;-70
2022/08/18 05:23:20;;;;;;;32.00;20.10;;;;;;;24.97;61.43;101389.66;5017330;28;20030;-71
2022/08/18 05:25:46;;;;;;;32.80;20.15;;;;;;;24.96;61.77;101381.72;5032176;28;20041;-70
2022/08/18 05:28:12;;;;;;;24.27;19.13;;;;;;;24.93;61.67;101385.88;5033819;28;20033;-69
2022/08/18 05:30:39;;;;;;;31.75;20.25;;;;;;;25.20;61.02;101387.75;5011978;28;20041;-69
2022/08/18 05:33:04;;;;;;;28.38;18.98;;;;;;;25.00;61.72;101386.28;5013325;28;20038;-70
2022/08/18 05:35:35;;;;;;;29.45;18.15;;;;;;;25.11;61.23;101378.63;5005032;28;20086;-69
2022/08/18 05:38:38;;;;;;;31.08;19.52;;;;;;;25.50;59.70;101372.53;4993995;28;20479;-69
2022/08/18 05:41:26;;;;;;;41.95;18.48;;;;;;;25.45;60.30;101376.22;5015457;28;20108;-68
2022/08/18 05:43:53;;;;;;;23.40;17.23;;;;;;;25.21;60.93;101373.72;5029646;28;20041;-68
2022/08/18 05:46:25;;;;;;;25.05;16.80;;;;;;;24.92;61.40;101370.50;5032973;28;20034;-68
2022/08/18 05:48:50;;;;;;;30.67;16.48;;;;;;;25.38;60.23;101374.97;5033398;28;20034;-68
2022/08/18 05:51:23;;;;;;;26.00;16.35;;;;;;;25.77;58.99;101375.97;5018425;28;20045;-69
2022/08/18 05:56:45;;;;;;;27.65;14.85;;;;;;;25.44;59.92;101374.59;5013093;28;20069;-69
2022/08/18 05:59:22;;;;;;;26.80;15.48;;;;;;;25.33;60.01;101370.41;5012924;28;20100;-70
2022/08/18 06:02:11;;;;;;;29.25;15.65;;;;;;;25.09;60.87;101367.94;5012800;28;20092;-69
2022/08/18 06:05:12;;;;;;;26.73;15.68;;;;;;;24.94;61.42;101364.72;5012918;28;20112;-70
2022/08/18 06:07:45;;;;;;;34.67;15.38;;;;;;;25.15;60.49;101368.63;4971153;28;20042;-70
2022/08/18 06:10:12;;;;;;;21.17;14.68;;;;;;;25.07;61.13;101372.94;4971624;28;20502;-70
2022/08/18 06:12:43;;;;;;;26.25;14.85;;;;;;;25.43;59.79;101378.47;4975112;28;20046;-70
2022/08/18 06:15:14;;;;;;;25.70;15.63;;;;;;;25.38;60.29;101384.03;4988764;28;20105;-68
2022/08/18 06:18:04;;;;;;;25.38;15.77;;;;;;;25.19;60.61;101378.72;4971137;28;20066;-71
2022/08/18 06:20:58;;;;;;;23.77;14.53;;;;;;;25.46;60.09;101380.59;4971294;28;20038;-69
2022/08/18 06:23:45;;;;;;;32.40;16.45;;;;;;;25.26;60.71;101381.03;4970767;28;20051;-69
2022/08/18 06:26:33;;;;;;;29.10;14.35;;;;;;;25.11;61.02;101379.44;4971056;28;20059;-68
2022/08/18 06:29:23;;;;;;;22.80;13.85;;;;;;;25.57;59.69;101381.16;4980341;28;20038;-68
2022/08/18 06:31:59;;;;;;;32.65;12.93;;;;;;;25.35;59.75;101383.88;4960765;28;20197;-69
2022/08/18 06:34:39;;;;;;;22.02;12.25;;;;;;;25.39;59.97;101379.38;4970716;28;20050;-70
2022/08/18 06:37:18;;;;;;;23.20;13.73;;;;;;;25.34;60.01;101380.28;4971158;28;20045;-69
2022/08/18 06:39:46;;;;;;;23.40;11.55;;;;;;;25.76;58.71;101388.13;4971042;28;20051;-69
2022/08/18 06:42:12;;;;;;;26.35;12.90;;;;;;;26.01;58.20;101384.72;4972636;28;20035;-69
2022/08/18 06:44:49;;;;;;;22.77;10.90;;;;;;;26.05;58.11;101385.72;5011625;28;20498;-68
2022/08/18 06:47:35;;;;;;;21.15;11.57;;;;;;;25.87;58.27;101395.00;5008932;28;20033;-70
2022/08/18 06:50:21;;;;;;;25.27;9.63;;;;;;;25.15;60.50;101388.72;5009512;28;20041;-69
2022/08/18 06:53:02;;;;;;;16.48;9.75;;;;;;;25.87;58.16;101388.66;5010027;28;20044;-70
2022/08/18 06:55:40;;;;;;;17.30;7.63;;;;;;;25.67;58.27;101395.47;5010780;28;20400;-70
2022/08/18 06:58:14;;;;;;;19.08;9.57;;;;;;;25.82;57.51;101400.63;5011131;28;20038;-69
2022/08/18 07:00:50;;;;;;;19.40;7.82;;;;;;;25.76;58.26;101404.66;5011178;28;20037;-70
2022/08/18 07:03:20;;;;;;;14.88;7.57;;;;;;;26.08;57.44;101392.56;5009027;28;20049;-70
2022/08/18 07:06:05;;;;;;;17.45;7.57;;;;;;;26.13;57.26;101403.44;5011301;28;20437;-69
2022/08/18 07:08:35;;;;;;;12.15;6.75;;;;;;;25.75;57.72;101394.75;5011043;28;20441;-70
2022/08/18 07:11:12;;;;;;;13.48;6.88;;;;;;;26.08;56.61;101404.38;5023826;28;20034;-70
2022/08/18 07:13:40;;;;;;;12.52;5.30;;;;;;;26.35;55.51;101402.59;5005858;28;20089;-70
2022/08/18 07:16:27;;;;;;;9.73;5.82;;;;;;;26.12;56.25;101409.28;5005966;28;20438;-70
2022/08/18 07:19:04;;;;;;;13.80;6.45;;;;;;;26.65;55.05;101408.06;5001051;28;20557;-72
2022/08/18 07:21:32;;;;;;;12.52;6.07;;;;;;;26.69;54.18;101411.03;5000249;28;20050;-71
2022/08/18 07:24:05;;;;;;;9.43;5.97;;;;;;;26.34;55.87;101418.31;5000402;28;20042;-69
2022/08/18 07:27:02;;;;;;;16.50;5.72;;;;;;;26.60;55.74;101408.22;5001353;28;20038;-68
2022/08/18 07:29:30;;;;;;;13.75;5.15;;;;;;;26.59;54.89;101420.41;5027474;28;20044;-68
2022/08/18 07:32:00;;;;;;;11.43;4.25;;;;;;;26.68;53.48;101415.72;5031374;28;20513;-68
2022/08/18 07:34:36;;;;;;;8.60;3.80;;;;;;;26.34;55.25;101420.28;5026517;28;20025;-68
2022/08/18 07:37:18;;;;;;;19.30;4.78;;;;;;;26.56;54.65;101421.03;5025128;28;20586;-69
2022/08/18 07:40:13;;;;;;;10.23;4.65;;;;;;;26.83;53.61;101431.03;5031024;28;20099;-70
2022/08/18 07:42:50;;;;;;;12.52;3.83;;;;;;;26.93;53.31;101428.81;4950489;28;20039;-70
2022/08/18 07:45:32;;;;;;;9.73;3.88;;;;;;;26.50;53.49;101430.56;4938875;28;20043;-71
2022/08/18 07:48:11;;;;;;;9.35;4.40;;;;;;;26.89;52.52;101427.81;4922504;29;20040;-70
2022/08/18 07:51:15;;;;;;;8.07;3.95;;;;;;;26.88;53.00;101433.66;4937636;29;20396;-70
2022/08/18 07:54:07;;;;;;;6.57;3.80;;;;;;;26.98;53.03;101427.03;4884177;29;20045;-69
2022/08/18 07:56:47;;;;;;;4.65;3.50;;;;;;;27.06;52.71;101429.84;4880933;29;20048;-70
2022/08/18 07:59:15;;;;;;;;;;;;;;;27.52;51.15;101440.31;4868322;29;20406;-68
2022/08/18 08:02:17;;;;;;;11.27;4.22;;;;;;;26.78;52.89;101440.28;4886354;29;20311;-70
2022/08/18 08:05:03;;;;;;;9.02;3.88;;;;;;;27.19;52.84;101441.84;4889838;29;20127;-69
2022/08/18 08:07:35;;;;;;;9.00;4.20;;;;;;;27.50;51.97;101437.88;4897195;29;20052;-69
2022/08/18 08:10:38;;;;;;;7.93;3.97;;;;;;;27.42;51.51;101433.16;4897536;29;20234;-69
2022/08/18 08:13:15;;;;;;;12.27;4.47;;;;;;;27.41;51.89;101437.06;4859812;29;20050;-70
2022/08/18 08:15:51;;;;;;;7.70;4.15;;;;;;;28.05;50.49;101434.50;4853941;29;20046;-71
2022/08/18 08:18:34;;;;;;;9.20;3.92;;;;;;;28.59;49.26;101436.47;4841319;29;20054;-71
2022/08/18 08:21:15;;;;;;;5.57;4.18;;;;;;;27.70;51.18;101444.69;4877691;29;20474;-70
2022/08/18 08:23:53;;;;;;;10.13;4.20;;;;;;;28.13;50.36;101447.44;4870862;29;20041;-77
2022/08/18 08:26:30;;;;;;;5.78;3.42;;;;;;;28.35;50.26;101439.78;4872728;29;20517;-78
2022/08/18 08:29:17;;;;;;;9.40;3.90;;;;;;;28.18;49.54;101442.59;4861191;29;20533;-76
2022/08/18 08:32:01;;;;;;;9.40;4.38;;;;;;;27.55;51.20;101448.78;4931176;29;20118;-75
2022/08/18 08:34:34;;;;;;;8.35;3.65;;;;;;;27.68;50.61;101446.97;4931185;29;20114;-78
2022/08/18 08:37:25;;;;;;;6.75;3.25;;;;;;;27.79;51.34;101440.78;4916014;29;20044;-76
2022/08/18 08:39:56;;;;;;;7.43;4.00;;;;;;;28.25;49.55;101439.31;4911851;29;20063;-77
2022/08/18 08:42:44;;;;;;;6.63;2.72;;;;;;;28.01;50.03;101441.81;4931622;29;20050;-77
2022/08/18 08:45:17;;;;;;;7.80;3.20;;;;;;;28.36;48.71;101441.38;4931828;29;20051;-77
2022/08/18 08:47:48;;;;;;;6.22;3.08;;;;;;;28.60;47.95;101444.44;4939869;28;20082;-76
2022/08/18 08:50:20;;;;;;;7.22;3.20;;;;;;;28.10;48.85;101437.06;5011340;28;20645;-77
2022/08/18 08:52:54;;;;;;;7.22;2.97;;;;;;;27.77;49.99;101440.31;5011827;28;20355;-77
2022/08/18 08:55:31;;;;;;;5.18;2.42;;;;;;;27.20;51.93;101443.50;5010806;28;20026;-73
2022/08/18 08:58:25;;;;;;;6.70;3.20;;;;;;;27.93;50.57;101439.84;4991994;28;20438;-77
2022/08/18 09:00:52;;;;;;;4.93;2.63;;;;;;;28.57;48.77;101439.56;5011658;28;20125;-76
2022/08/18 09:03:46;;;;;;;10.18;2.70;;;;;;;27.85;49.76;101433.19;5009803;28;20126;-76
2022/08/18 09:06:36;;;;;;;7.32;2.90;;;;;;;28.55;48.62;101446.56;5011579;28;20046;-75
2022/08/18 09:09:10;;;;;;;;;;;;;;;28.28;49.00;101449.72;5011509;28;20034;-75
2022/08/18 09:11:44;;;;;;;8.68;1.90;;;;;;;29.06;46.40;101438.03;5010554;28;20463;-77
2022/08/18 09:14:39;;;;;;;3.38;1.63;;;;;;;28.53;47.13;101432.22;5011012;28;20048;-78
2022/08/18 09:17:30;;;;;;;4.45;2.33;;;;;;;28.86;45.38;101436.00;5009507;28;20137;-75
2022/08/18 09:20:36;;;;;;;4.43;2.13;;;;;;;28.95;45.48;101430.44;5009329;28;20136;-76
2022/08/18 09:23:24;;;;;;;3.47;2.42;;;;;;;29.67;44.60;101435.66;5022174;28;20051;-77
2022/08/18 09:25:55;;;;;;;6.30;2.70;;;;;;;29.36;45.63;101434.13;5030024;28;20442;-77
2022/08/18 09:28:55;;;;;;;6.03;1.95;;;;;;;29.62;44.59;101436.66;5030103;28;20036;-75
2022/08/18 09:31:20;;;;;;;6.80;2.30;;;;;;;28.92;46.33;101436.63;5030586;28;20529;-72
2022/08/18 09:34:20;;;;;;;7.90;2.42;;;;;;;28.85;46.83;101439.94;5030528;28;20030;-75
2022/08/18 09:37:11;;;;;;;7.10;2.45;;;;;;;30.04;44.72;101435.50;5030067;28;20049;-75
2022/08/18 09:42:53;;;;;;;4.35;2.20;;;;;;;29.75;44.93;101446.72;5029829;28;20445;-75
2022/08/18 09:45:31;;;;;;;6.07;2.78;;;;;;;29.62;45.42;101441.41;5030015;28;20541;-75
2022/08/18 09:48:38;;;;;;;4.93;2.47;;;;;;;29.58;45.43;101440.47;5024913;28;20068;-75
2022/08/18 09:51:14;;;;;;;7.82;3.00;;;;;;;29.68;45.57;101445.59;5029651;28;20053;-74
2022/08/18 09:53:45;;;;;;;6.88;2.22;;;;;;;29.92;45.41;101445.72;5029447;28;20041;-74
2022/08/18 09:56:13;;;;;;;5.97;1.80;;;;;;;30.50;41.96;101445.50;5026252;28;20040;-75
2022/08/18 09:58:52;;;;;;;10.65;2.10;;;;;;;31.26;40.78;101436.47;5015810;28;20046;-76
2022/08/18 10:01:19;;;;;;;8.73;2.03;;;;;;;30.50;41.73;101444.66;4998287;28;20053;-73
2022/08/18 10:04:09;;;;;;;5.82;2.22;;;;;;;30.22;42.54;101448.06;5017345;28;20551;-75
2022/08/18 10:06:37;;;;;;;6.43;1.75;;;;;;;30.25;42.65;101441.81;5016564;28;20449;-76
2022/08/18 10:09:29;;;;;;;6.07;1.85;;;;;;;30.55;43.06;101441.66;5018764;28;20133;-76
2022/08/18 10:12:02;;;;;;;6.88;1.65;;;;;;;30.73;41.46;101437.53;4996207;28;20041;-74
2022/08/18 10:14:51;;;;;;;6.65;1.60;;;;;;;30.69;41.51;101439.38;5022550;28;20048;-76
2022/08/18 10:17:31;;;;;;;4.53;1.70;;;;;;;30.57;42.38;101436.56;5009209;28;20049;-75
2022/08/18 10:20:08;;;;;;;2.60;1.38;;;;;;;30.60;41.32;101445.03;5009400;28;20044;-75
2022/08/18 10:22:47;;;;;;;4.90;1.90;;;;;;;30.89;40.63;101435.72;5004202;28;20053;-74
2022/08/18 10:25:31;;;;;;;3.25;1.50;;;;;;;30.41;41.11;101432.88;4993177;28;20109;-76
2022/08/18 10:27:56;;;;;;;7.28;2.03;;;;;;;29.35;44.52;101435.25;4996742;28;20038;-74
2022/08/18 10:30:28;;;;;;;4.68;2.20;;;;;;;30.07;43.80;101440.34;4999409;28;20677;-74
2022/08/18 10:32:54;;;;;;;7.15;2.55;;;;;;;29.93;44.84;101439.88;4993167;28;20038;-75
2022/08/18 10:35:37;;;;;;;4.57;2.42;;;;;;;30.14;44.18;101440.63;5000355;28;20068;-75
2022/08/18 10:38:16;;;;;;;7.00;2.85;;;;;;;30.61;43.65;101445.84;4998212;28;20073;-74
2022/08/18 10:40:42;;;;;;;3.92;1.90;;;;;;;29.69;44.67;101444.44;4997841;28;20030;-76
2022/08/18 10:43:38;;;;;;;3.22;1.98;;;;;;;30.11;43.58;101446.06;4982941;28;20025;-74
2022/08/18 10:46:12;;;;;;;4.22;1.85;;;;;;;30.43;42.70;101447.22;4997562;28;20134;-75
2022/08/18 10:48:38;;;;;;;3.17;1.83;;;;;;;30.33;42.45;101453.97;4995810;28;20406;-75
2022/08/18 10:51:23;;;;;;;8.23;2.35;;;;;;;29.60;44.42;101461.16;5002955;28;20038;-74
2022/08/18 10:54:02;;;;;;;6.32;2.25;;;;;;;30.57;43.27;101451.25;4994842;28;20038;-75
2022/08/18 10:56:51;;;;;;;7.38;2.40;;;;;;;30.89;42.58;101442.09;4994804;28;20050;-75
2022/08/18 10:59:37;;;;;;;5.90;2.40;;;;;;;31.25;42.09;101445.97;4999346;28;20062;-74
2022/08/18 11:02:09;;;;;;;5.85;2.13;;;;;;;31.43;41.23;101445.38;4998119;28;20045;-75
2022/08/18 11:04:46;;;;;;;5.78;1.90;;;;;;;31.07;41.37;101446.25;4998211;28;20053;-75
2022/08/18 11:07:18;;;;;;;8.55;2.10;;;;;;;31.52;40.31;101440.50;4998764;28;20097;-75
2022/08/18 11:09:48;;;;;;;6.65;1.90;;;;;;;30.29;43.22;101456.63;4995108;28;20034;-75
2022/08/18 11:12:14;;;;;;;3.15;1.50;;;;;;;31.20;41.24;101449.78;4997701;28;20129;-73
2022/08/18 11:15:05;;;;;;;8.18;2.10;;;;;;;30.86;41.67;101456.63;4997593;28;20050;-74
2022/08/18 11:17:59;;;;;;;3.40;1.83;;;;;;;29.53;44.72;101444.25;5000412;28;20640;-73
2022/08/18 11:20:30;;;;;;;8.20;2.22;;;;;;;30.72;41.56;101449.78;4997892;28;20038;-75
2022/08/18 11:22:59;;;;;;;4.03;1.80;;;;;;;30.92;41.72;101448.88;5008186;28;20056;-74
2022/08/18 11:25:29;;;;;;;5.75;1.90;;;;;;;31.11;40.85;101446.34;5023661;28;20069;-75
2022/08/18 11:27:56;;;;;;;8.00;2.78;;;;;;;30.30;42.67;101443.59;5028595;28;20045;-76
2022/08/18 11:30:25;;;;;;;6.43;1.80;;;;;;;31.57;40.54;101442.22;5025257;28;20076;-74
2022/08/18 11:32:51;;;;;;;3.13;1.58;;;;;;;31.58;39.76;101446.63;5028269;28;20034;-73
2022/08/18 11:35:26;;;;;;;2.58;1.52;;;;;;;31.23;41.03;101449.13;5012126;28;20056;-73
2022/08/18 11:37:59;;;;;;;5.07;1.13;;;;;;;30.42;41.40;101446.41;5032446;28;20052;-75
2022/08/18 11:40:37;;;;;;;5.07;1.40;;;;;;;30.19;42.29;101448.72;5032290;28;20037;-75
2022/08/18 11:43:09;;;;;;;6.70;1.73;;;;;;;29.89;43.05;101450.00;5032321;28;20041;-76
2022/08/18 11:45:51;;;;;;;2.55;1.40;;;;;;;30.57;41.53;101458.78;5031928;28;20038;-75
2022/08/18 11:48:32;;;;;;;5.28;1.80;;;;;;;30.84;41.52;101458.94;5032148;28;20065;-76
2022/08/18 11:51:00;;;;;;;7.75;2.97;;;;;;;31.28;40.98;101446.09;5031798;28;20470;-74
2022/08/18 11:53:31;;;;;;;3.67;1.70;;;;;;;31.10;41.30;101447.50;5022038;28;20041;-75
2022/08/18 11:56:33;;;;;;;2.95;1.25;;;;;;;31.26;40.36;101444.81;5018484;28;20037;-74
2022/08/18 11:59:02;;;;;;;3.63;1.50;;;;;;;31.61;40.13;101441.16;4926579;29;20118;-71
2022/08/18 12:01:47;;;;;;;4.00;1.45;;;;;;;30.17;42.12;101436.38;4912453;29;20479;-72